createdAt,value
2023-03-14T00:01:25.925Z,95856.00
2023-03-14T00:03:30.424Z,95861.56
2023-03-14T00:05:36.254Z,95866.88
2023-03-14T00:07:41.080Z,95877.72
2023-03-14T00:09:43.929Z,95874.25
2023-03-14T00:11:47.491Z,95882.47
2023-03-14T00:13:50.878Z,95880.75
2023-03-14T00:15:53.819Z,95876.94
2023-03-14T00:17:56.690Z,95883.06
2023-03-14T00:20:05.164Z,95879.13
2023-03-14T00:22:09.401Z,95901.41
2023-03-14T00:24:12.243Z,95914.13
2023-03-14T00:26:17.152Z,95892.06
2023-03-14T00:28:19.902Z,95888.50
2023-03-14T00:30:22.686Z,95878.69
2023-03-14T00:32:25.762Z,95871.28
2023-03-14T00:34:30.954Z,95882.69
2023-03-14T00:36:33.915Z,95898.19
2023-03-14T00:38:38.982Z,95900.50
2023-03-14T00:40:41.929Z,95916.00
2023-03-14T00:42:44.834Z,95932.72
2023-03-14T00:44:47.544Z,95927.06
2023-03-14T00:46:50.491Z,95923.25
2023-03-14T00:48:53.338Z,95935.50
2023-03-14T00:50:56.270Z,95938.94
2023-03-14T00:52:59.662Z,95945.63
2023-03-14T00:55:03.881Z,95942.19
2023-03-14T00:57:06.571Z,95946.44
2023-03-14T00:59:09.300Z,95949.47
2023-03-14T01:01:16.048Z,95943.13
2023-03-14T01:03:18.886Z,95950.13
2023-03-14T01:05:23.364Z,95940.69
2023-03-14T01:07:26.610Z,95939.88
2023-03-14T01:09:29.553Z,95938.59
2023-03-14T01:11:35.858Z,95918.16
2023-03-14T01:13:39.167Z,95920.91
2023-03-14T01:15:41.932Z,95929.47
2023-03-14T01:17:45.441Z,95916.41
2023-03-14T01:19:48.246Z,95917.56
2023-03-14T01:21:51.104Z,95911.44
2023-03-14T01:23:55.190Z,95898.16
2023-03-14T01:25:58.191Z,95876.13
2023-03-14T01:28:02.345Z,95889.28
2023-03-14T01:30:06.130Z,95886.84
2023-03-14T01:32:09.039Z,95884.53
2023-03-14T01:34:11.895Z,95876.13
2023-03-14T01:36:14.919Z,95870.56
2023-03-14T01:38:17.760Z,95867.66
2023-03-14T01:40:20.598Z,95860.25
2023-03-14T01:42:23.435Z,95854.16
2023-03-14T01:44:27.893Z,95838.44
2023-03-14T01:46:36.055Z,95841.59
2023-03-14T01:48:40.858Z,95836.16
2023-03-14T01:50:43.746Z,95833.50
2023-03-14T01:52:49.747Z,95830.28
2023-03-14T01:54:55.135Z,95831.41
2023-03-14T01:57:04.312Z,95833.06
2023-03-14T01:59:09.994Z,95831.75
2023-03-14T02:01:16.000Z,95821.72
2023-03-14T02:03:22.480Z,95821.47
2023-03-14T02:05:29.151Z,95812.69
2023-03-14T02:07:37.524Z,95810.28
2023-03-14T02:09:41.321Z,95811.00
2023-03-14T02:11:45.674Z,95813.31
2023-03-14T02:13:48.807Z,95791.50
2023-03-14T02:15:52.286Z,95777.88
2023-03-14T02:17:56.773Z,95774.88
2023-03-14T02:20:09.640Z,95760.78
2023-03-14T02:22:14.975Z,95750.53
2023-03-14T02:24:27.426Z,95739.97
2023-03-14T02:26:35.966Z,95739.28
2023-03-14T02:28:40.384Z,95721.50
2023-03-14T02:30:43.687Z,95719.97
2023-03-14T02:32:49.391Z,95721.00
2023-03-14T02:34:56.327Z,95732.44
2023-03-14T02:36:59.936Z,95731.63
2023-03-14T02:39:09.939Z,95742.25
2023-03-14T02:41:12.808Z,95739.84
2023-03-14T02:43:15.720Z,95754.97
2023-03-14T02:45:41.971Z,95752.78
2023-03-14T02:47:49.289Z,95750.47
2023-03-14T02:49:55.496Z,95743.06
2023-03-14T02:51:58.398Z,95748.94
2023-03-14T02:54:01.209Z,95749.19
2023-03-14T02:56:04.689Z,95753.69
2023-03-14T02:58:07.517Z,95754.50
2023-03-14T03:00:11.667Z,95756.09
2023-03-14T03:02:15.848Z,95749.19
2023-03-14T03:04:18.759Z,95743.56
2023-03-14T03:06:22.206Z,95736.94
2023-03-14T03:08:27.209Z,95718.91
2023-03-14T03:10:30.596Z,95722.63
2023-03-14T03:12:33.392Z,95730.09
2023-03-14T03:14:36.162Z,95723.44
2023-03-14T03:16:39.079Z,95712.00
2023-03-14T03:18:43.279Z,95709.91
2023-03-14T03:20:46.594Z,95714.41
2023-03-14T03:22:50.837Z,95710.38
2023-03-14T03:24:53.739Z,95708.28
2023-03-14T03:26:57.071Z,95691.78
2023-03-14T03:28:59.803Z,95704.03
2023-03-14T03:31:09.109Z,95703.47
2023-03-14T03:33:12.348Z,95696.31
2023-03-14T03:35:16.716Z,95686.72
2023-03-14T03:37:19.770Z,95693.09
2023-03-14T03:39:22.709Z,95682.47
2023-03-14T03:41:25.626Z,95671.25
2023-03-14T03:43:28.381Z,95663.44
2023-03-14T03:45:31.244Z,95658.13
2023-03-14T03:47:34.115Z,95670.06
2023-03-14T03:49:37.043Z,95664.97
2023-03-14T03:51:42.004Z,95664.16
2023-03-14T03:53:45.164Z,95653.31
2023-03-14T03:55:48.067Z,95639.22
2023-03-14T03:57:50.984Z,95636.00
2023-03-14T03:59:53.744Z,95636.00
2023-03-14T04:01:56.870Z,95640.50
2023-03-14T04:03:59.969Z,95630.44
2023-03-14T04:06:05.048Z,95623.31
2023-03-14T04:08:09.289Z,95626.53
2023-03-14T04:10:12.536Z,95624.41
2023-03-14T04:12:15.302Z,95618.31
2023-03-14T04:14:18.443Z,95603.41
2023-03-14T04:16:23.742Z,95595.44
2023-03-14T04:18:26.869Z,95591.25
2023-03-14T04:20:29.654Z,95579.84
2023-03-14T04:22:32.536Z,95589.09
2023-03-14T04:24:36.681Z,95597.06
2023-03-14T04:26:39.460Z,95587.50
2023-03-14T04:28:42.409Z,95592.56
2023-03-14T04:30:45.514Z,95590.16
2023-03-14T04:32:48.310Z,95584.84
2023-03-14T04:34:51.147Z,95582.19
2023-03-14T04:36:53.912Z,95583.22
2023-03-14T04:38:56.832Z,95576.31
2023-03-14T04:41:01.586Z,95559.56
2023-03-14T04:43:04.364Z,95555.28
2023-03-14T04:45:08.805Z,95550.72
2023-03-14T04:47:11.694Z,95546.03
2023-03-14T04:49:14.667Z,95545.97
2023-03-14T04:51:17.464Z,95523.84
2023-03-14T04:53:20.597Z,95519.00
2023-03-14T04:55:24.488Z,95510.50
2023-03-14T04:57:28.800Z,95508.22
2023-03-14T04:59:31.757Z,95507.09
2023-03-14T05:01:34.616Z,95511.13
2023-03-14T05:03:39.029Z,95502.13
2023-03-14T05:05:41.860Z,95497.03
2023-03-14T05:07:44.608Z,95487.34
2023-03-14T05:09:47.443Z,95485.75
2023-03-14T05:11:50.294Z,95485.50
2023-03-14T05:13:54.612Z,95483.09
2023-03-14T05:16:05.829Z,95487.84
2023-03-14T05:18:08.619Z,95501.13
2023-03-14T05:20:13.707Z,95489.84
2023-03-14T05:22:16.580Z,95499.34
2023-03-14T05:24:19.426Z,95498.78
2023-03-14T05:26:22.304Z,95495.06
2023-03-14T05:28:25.190Z,95494.25
2023-03-14T05:30:31.733Z,95487.91
2023-03-14T05:32:34.890Z,95481.31
2023-03-14T05:34:37.866Z,95477.16
2023-03-14T05:36:40.726Z,95476.66
2023-03-14T05:38:43.578Z,95477.16
2023-03-14T05:40:47.439Z,95479.47
2023-03-14T05:42:50.289Z,95480.19
2023-03-14T05:44:53.031Z,95490.00
2023-03-14T05:46:57.150Z,95481.50
2023-03-14T05:49:00.176Z,95496.59
2023-03-14T05:51:03.096Z,95495.44
2023-03-14T05:53:06.171Z,95498.34
2023-03-14T05:55:09.796Z,95507.34
2023-03-14T05:57:12.585Z,95514.69
2023-03-14T05:59:15.971Z,95516.84
2023-03-14T06:01:18.771Z,95519.50
2023-03-14T06:03:23.137Z,95529.56
2023-03-14T06:05:26.050Z,95535.34
2023-03-14T06:07:28.862Z,95535.34
2023-03-14T06:09:31.637Z,95536.94
2023-03-14T06:11:34.907Z,95532.22
2023-03-14T06:13:37.722Z,95531.97
2023-03-14T06:15:40.592Z,95540.16
2023-03-14T06:17:43.388Z,95542.91
2023-03-14T06:19:47.742Z,95553.75
2023-03-14T06:21:50.484Z,95545.00
2023-03-14T06:23:53.269Z,95559.28
2023-03-14T06:25:56.241Z,95560.34
2023-03-14T06:27:58.994Z,95566.13
2023-03-14T06:30:01.896Z,95565.09
2023-03-14T06:32:07.333Z,95576.75
2023-03-14T06:34:10.209Z,95570.53
2023-03-14T06:36:14.520Z,95571.25
2023-03-14T06:38:17.393Z,95569.06
2023-03-14T06:40:20.314Z,95575.63
2023-03-14T06:42:23.813Z,95574.03
2023-03-14T06:44:26.730Z,95580.63
2023-03-14T06:46:29.733Z,95577.97
2023-03-14T06:48:32.581Z,95575.44
2023-03-14T06:50:36.218Z,95584.50
2023-03-14T06:52:42.190Z,95583.69
2023-03-14T06:54:45.085Z,95576.56
2023-03-14T06:56:48.073Z,95579.19
2023-03-14T06:58:50.901Z,95591.91
2023-03-14T07:00:55.343Z,95587.16
2023-03-14T07:02:58.116Z,95586.91
2023-03-14T07:05:01.541Z,95601.22
2023-03-14T07:07:04.356Z,95598.34
2023-03-14T07:09:08.532Z,95605.47
2023-03-14T07:11:12.228Z,95607.34
2023-03-14T07:13:15.066Z,95611.59
2023-03-14T07:15:19.520Z,95617.13
2023-03-14T07:17:22.576Z,95620.69
2023-03-14T07:19:25.430Z,95619.06
2023-03-14T07:21:28.654Z,95631.66
2023-03-14T07:23:31.954Z,95634.06
2023-03-14T07:25:36.205Z,95634.19
2023-03-14T07:27:39.041Z,95634.19
2023-03-14T07:29:41.912Z,95637.31
2023-03-14T07:31:44.791Z,95648.25
2023-03-14T07:33:48.597Z,95640.78
2023-03-14T07:35:51.969Z,95647.84
2023-03-14T07:37:54.829Z,95647.03
2023-03-14T07:39:58.170Z,95650.38
2023-03-14T07:42:02.953Z,95658.09
2023-03-14T07:44:05.877Z,95652.78
2023-03-14T07:46:08.996Z,95656.84
2023-03-14T07:48:11.952Z,95653.13
2023-03-14T07:50:14.937Z,95655.56
2023-03-14T07:52:18.670Z,95665.81
2023-03-14T07:54:21.615Z,95667.88
2023-03-14T07:56:24.410Z,95663.94
2023-03-14T07:58:28.621Z,95666.16
2023-03-14T08:00:31.400Z,95670.50
2023-03-14T08:02:34.191Z,95666.25
2023-03-14T08:04:37.613Z,95667.19
2023-03-14T08:06:40.923Z,95674.47
2023-03-14T08:08:43.849Z,95685.66
2023-03-14T08:10:47.345Z,95676.09
2023-03-14T08:12:50.524Z,95684.97
2023-03-14T08:14:54.701Z,95686.22
2023-03-14T08:16:57.512Z,95690.38
2023-03-14T08:19:00.389Z,95690.72
2023-03-14T08:21:03.352Z,95693.13
2023-03-14T08:23:06.200Z,95693.13
2023-03-14T08:25:09.794Z,95685.16
2023-03-14T08:27:12.586Z,95688.06
2023-03-14T08:29:15.496Z,95691.66
2023-03-14T08:31:19.809Z,95695.34
2023-03-14T08:33:22.851Z,95692.22
2023-03-14T08:35:26.141Z,95696.16
2023-03-14T08:37:29.067Z,95704.78
2023-03-14T08:39:31.963Z,95697.66
2023-03-14T08:41:36.037Z,95710.47
2023-03-14T08:43:41.302Z,95709.06
2023-03-14T08:45:44.107Z,95716.69
2023-03-14T08:47:48.480Z,95714.59
2023-03-14T08:49:51.481Z,95721.97
2023-03-14T08:51:54.327Z,95722.44
2023-03-14T08:53:57.501Z,95729.84
2023-03-14T08:56:00.528Z,95731.31
2023-03-14T08:58:03.356Z,95750.34
2023-03-14T09:00:11.300Z,95744.47
2023-03-14T09:02:14.584Z,95759.91
2023-03-14T09:04:18.977Z,95758.53
2023-03-14T09:06:21.878Z,95753.47
2023-03-14T09:08:24.740Z,95768.31
2023-03-14T09:10:29.922Z,95767.19
2023-03-14T09:12:32.820Z,95779.41
2023-03-14T09:14:35.951Z,95781.44
2023-03-14T09:16:38.997Z,95791.47
2023-03-14T09:18:44.386Z,95794.94
2023-03-14T09:20:48.842Z,95797.34
2023-03-14T09:22:51.678Z,95806.94
2023-03-14T09:24:54.606Z,95814.44
2023-03-14T09:26:57.845Z,95809.47
2023-03-14T09:29:00.692Z,95824.25
2023-03-14T09:31:08.953Z,95831.25
2023-03-14T09:33:11.822Z,95827.56
2023-03-14T09:35:14.702Z,95839.78
2023-03-14T09:37:19.107Z,95838.66
2023-03-14T09:39:22.201Z,95851.34
2023-03-14T09:41:28.629Z,95858.25
2023-03-14T09:43:36.732Z,95867.25
2023-03-14T09:45:43.730Z,95871.75
2023-03-14T09:47:58.546Z,95878.66
2023-03-14T09:50:04.239Z,95880.50
2023-03-14T09:52:13.744Z,95886.25
2023-03-14T09:54:31.094Z,95895.25
2023-03-14T09:56:36.076Z,95895.69
2023-03-14T09:58:42.425Z,95900.41
2023-03-14T10:00:46.207Z,95904.00
2023-03-14T10:02:53.845Z,95901.19
2023-03-14T10:04:56.840Z,95897.38
2023-03-14T10:06:59.544Z,95907.75
2023-03-14T10:09:03.540Z,95901.19
2023-03-14T10:11:08.446Z,95912.75
2023-03-14T10:13:17.479Z,95908.81
2023-03-14T10:15:27.011Z,95922.41
2023-03-14T10:17:31.290Z,95911.75
2023-03-14T10:19:34.124Z,95907.44
2023-03-14T10:21:41.554Z,95915.69
2023-03-14T10:23:44.819Z,95920.66
2023-03-14T10:26:01.399Z,95912.47
2023-03-14T10:28:07.881Z,95928.63
2023-03-14T10:30:45.211Z,95928.63
2023-03-14T10:32:48.587Z,95936.00
2023-03-14T10:35:08.155Z,95942.78
2023-03-14T10:37:23.201Z,95954.41
2023-03-14T10:39:31.064Z,95960.88
2023-03-14T10:41:35.585Z,95965.97
2023-03-14T10:43:40.202Z,95964.69
2023-03-14T10:45:45.048Z,95967.28
2023-03-14T10:47:51.060Z,95981.34
2023-03-14T10:49:54.055Z,95986.41
2023-03-14T10:51:56.973Z,95976.31
2023-03-14T10:54:01.484Z,95992.94
2023-03-14T10:56:05.637Z,95994.78
2023-03-14T10:58:20.642Z,96012.28
2023-03-14T11:00:25.616Z,96001.69
2023-03-14T11:02:40.000Z,96010.38
2023-03-14T11:05:03.199Z,96018.09
2023-03-14T11:07:13.370Z,96017.38
2023-03-14T11:09:24.232Z,96037.63
2023-03-14T11:11:31.566Z,96039.25
2023-03-14T11:13:41.298Z,96044.56
2023-03-14T11:15:55.998Z,96045.13
2023-03-14T11:18:33.653Z,96050.22
2023-03-14T11:20:45.189Z,96050.81
2023-03-14T11:22:51.971Z,96075.25
2023-03-14T11:25:17.146Z,96077.59
2023-03-14T11:27:23.440Z,96099.78
2023-03-14T11:29:35.581Z,96118.31
2023-03-14T11:31:42.667Z,96181.75
2023-03-14T11:33:56.616Z,96164.66
2023-03-14T11:36:07.604Z,96175.84
2023-03-14T11:38:29.747Z,96200.22
2023-03-14T11:40:35.043Z,96212.06
2023-03-14T11:42:39.308Z,96204.22
2023-03-14T11:44:46.518Z,96209.53
2023-03-14T11:46:55.351Z,96200.03
2023-03-14T11:49:03.859Z,96204.31
2023-03-14T11:51:13.257Z,96211.22
2023-03-14T11:53:20.346Z,96223.25
2023-03-14T11:55:28.076Z,96217.34
2023-03-14T11:57:30.880Z,96219.75
2023-03-14T11:59:44.434Z,96212.59
2023-03-14T12:01:58.044Z,96221.69
2023-03-14T12:04:08.997Z,96223.03
2023-03-14T12:06:18.717Z,96230.53
2023-03-14T12:08:40.597Z,96220.69
2023-03-14T12:10:48.237Z,96220.66
2023-03-14T12:12:51.379Z,96237.88
2023-03-14T12:14:57.539Z,96237.41
2023-03-14T12:17:08.505Z,96250.41
2023-03-14T12:19:34.317Z,96257.88
2023-03-14T12:21:49.591Z,96263.50
2023-03-14T12:23:54.716Z,96263.63
2023-03-14T12:26:19.149Z,96256.50
2023-03-14T12:28:23.203Z,96260.97
2023-03-14T12:30:30.405Z,96256.44
2023-03-14T12:32:34.786Z,96253.34
2023-03-14T12:34:43.400Z,96253.72
2023-03-14T12:37:08.840Z,96247.81
2023-03-14T12:39:24.424Z,96254.50
2023-03-14T12:41:31.538Z,96248.56
2023-03-14T12:43:38.084Z,96248.94
2023-03-14T12:45:42.689Z,96243.56
2023-03-14T12:47:57.258Z,96244.06
2023-03-14T12:50:17.305Z,96234.22
2023-03-14T12:52:23.398Z,96225.78
2023-03-14T12:54:40.411Z,96220.66
2023-03-14T12:56:54.964Z,96219.16
2023-03-14T12:59:16.181Z,96223.00
2023-03-14T13:01:20.893Z,96219.47
2023-03-14T13:03:29.020Z,96211.50
2023-03-14T13:05:32.179Z,96210.41
2023-03-14T13:07:39.173Z,96207.06
2023-03-14T13:09:57.624Z,96198.81
2023-03-14T13:12:04.681Z,96203.19
2023-03-14T13:14:12.236Z,96198.69
2023-03-14T13:16:18.995Z,96199.50
2023-03-14T13:18:31.898Z,96197.00
2023-03-14T13:20:37.798Z,96194.09
2023-03-14T13:22:40.962Z,96190.06
2023-03-14T13:24:43.842Z,96195.84
2023-03-14T13:26:47.953Z,96197.75
2023-03-14T13:28:51.227Z,96194.28
2023-03-14T13:30:59.579Z,96195.56
2023-03-14T13:33:06.161Z,96200.06
2023-03-14T13:35:21.857Z,96208.69
2023-03-14T13:37:26.853Z,96207.06
2023-03-14T13:39:31.682Z,96207.06
2023-03-14T13:41:34.711Z,96209.22
2023-03-14T13:43:42.050Z,96213.34
2023-03-14T13:45:53.880Z,96203.16
2023-03-14T13:47:56.950Z,96210.31
2023-03-14T13:50:00.879Z,96215.03
2023-03-14T13:52:06.147Z,96208.88
2023-03-14T13:54:21.209Z,96203.31
2023-03-14T13:56:26.402Z,96213.56
2023-03-14T13:58:31.787Z,96210.16
2023-03-14T14:00:34.885Z,96207.72
2023-03-14T14:02:40.106Z,96199.53
2023-03-14T14:04:46.934Z,96201.31
2023-03-14T14:06:52.870Z,96198.66
2023-03-14T14:08:58.250Z,96194.78
2023-03-14T14:11:05.295Z,96192.47
2023-03-14T14:13:14.925Z,96204.28
2023-03-14T14:15:21.666Z,96200.94
2023-03-14T14:17:28.757Z,96209.59
2023-03-14T14:19:35.952Z,96216.75
2023-03-14T14:21:39.004Z,96222.72
2023-03-14T14:23:42.145Z,96217.06
2023-03-14T14:25:47.534Z,96233.16
2023-03-14T14:27:52.028Z,96242.97
2023-03-14T14:30:03.108Z,96245.25
2023-03-14T14:32:14.468Z,96256.41
2023-03-14T14:34:21.838Z,96264.72
2023-03-14T14:36:27.580Z,96269.88
2023-03-14T14:38:31.431Z,96263.75
2023-03-14T14:40:34.428Z,96256.59
2023-03-14T14:42:43.399Z,96254.31
2023-03-14T14:44:47.249Z,96261.84
2023-03-14T14:46:50.664Z,96260.59
2023-03-14T14:48:58.488Z,96276.53
2023-03-14T14:51:03.524Z,96277.75
2023-03-14T14:53:24.543Z,96283.72
2023-03-14T14:55:34.023Z,96294.13
2023-03-14T14:57:41.371Z,96295.38
2023-03-14T14:59:47.446Z,96286.59
2023-03-14T15:01:52.185Z,96282.56
2023-03-14T15:03:55.893Z,96279.16
2023-03-14T15:05:59.318Z,96269.41
2023-03-14T15:08:01.888Z,96281.03
2023-03-14T15:10:05.186Z,96295.09
2023-03-14T15:12:08.255Z,96295.31
2023-03-14T15:14:12.758Z,96295.78
2023-03-14T15:16:19.947Z,96300.50
2023-03-14T15:18:23.455Z,96306.00
2023-03-14T15:20:26.332Z,96312.38
2023-03-14T15:22:29.387Z,96310.53
2023-03-14T15:24:32.120Z,96309.97
2023-03-14T15:26:35.063Z,96306.06
2023-03-14T15:28:37.945Z,96314.59
2023-03-14T15:30:42.442Z,96298.88
2023-03-14T15:32:45.759Z,96296.00
2023-03-14T15:34:48.634Z,96299.47
2023-03-14T15:36:51.433Z,96298.78
2023-03-14T15:38:55.425Z,96304.84
2023-03-14T15:40:58.448Z,96308.31
2023-03-14T15:43:01.471Z,96304.50
2023-03-14T15:45:04.571Z,96303.88
2023-03-14T15:47:12.733Z,96305.31
2023-03-14T15:49:15.639Z,96298.56
2023-03-14T15:51:19.193Z,96300.41
2023-03-14T15:53:22.347Z,96298.78
2023-03-14T15:55:25.323Z,96302.09
2023-03-14T15:57:28.289Z,96290.72
2023-03-14T15:59:31.319Z,96289.13
2023-03-14T16:01:34.415Z,96292.34
2023-03-14T16:03:39.520Z,96294.00
2023-03-14T16:05:42.603Z,96287.06
2023-03-14T16:07:45.599Z,96286.31
2023-03-14T16:09:48.381Z,96285.28
2023-03-14T16:11:51.135Z,96291.19
2023-03-14T16:13:54.124Z,96291.53
2023-03-14T16:15:58.962Z,96298.28
2023-03-14T16:18:06.480Z,96302.97
2023-03-14T16:20:20.385Z,96312.38
2023-03-14T16:22:23.307Z,96312.38
2023-03-14T16:24:26.081Z,96318.69
2023-03-14T16:26:28.905Z,96325.38
2023-03-14T16:28:31.720Z,96311.69
2023-03-14T16:30:34.475Z,96307.56
2023-03-14T16:32:38.198Z,96318.38
2023-03-14T16:34:43.338Z,96329.06
2023-03-14T16:36:48.025Z,96332.34
2023-03-14T16:38:51.516Z,96325.66
2023-03-14T16:40:58.797Z,96332.41
2023-03-14T16:43:15.663Z,96340.63
2023-03-14T16:45:19.155Z,96344.53
2023-03-14T16:47:22.600Z,96344.75
2023-03-14T16:49:25.501Z,96346.19
2023-03-14T16:51:28.445Z,96352.50
2023-03-14T16:53:32.651Z,96359.28
2023-03-14T16:55:35.691Z,96357.44
2023-03-14T16:57:38.578Z,96364.53
2023-03-14T16:59:41.314Z,96368.16
2023-03-14T17:01:44.526Z,96368.75
2023-03-14T17:03:48.850Z,96363.66
2023-03-14T17:05:53.644Z,96375.66
2023-03-14T17:07:56.662Z,96377.72
2023-03-14T17:10:01.041Z,96381.56
2023-03-14T17:12:03.897Z,96378.94
2023-03-14T17:14:06.733Z,96388.13
2023-03-14T17:16:10.470Z,96382.59
2023-03-14T17:18:13.555Z,96396.84
2023-03-14T17:20:17.398Z,96391.78
2023-03-14T17:22:25.921Z,96404.59
2023-03-14T17:24:30.976Z,96416.44
2023-03-14T17:26:35.217Z,96418.06
2023-03-14T17:28:37.938Z,96419.47
2023-03-14T17:30:40.803Z,96420.06
2023-03-14T17:32:43.655Z,96429.84
2023-03-14T17:34:46.954Z,96434.13
2023-03-14T17:36:49.988Z,96439.06
2023-03-14T17:38:53.973Z,96437.22
2023-03-14T17:40:56.744Z,96437.81
2023-03-14T17:43:00.851Z,96440.47
2023-03-14T17:45:03.812Z,96443.13
2023-03-14T17:47:06.859Z,96450.25
2023-03-14T17:49:09.701Z,96457.63
2023-03-14T17:51:13.020Z,96461.72
2023-03-14T17:53:15.776Z,96463.34
2023-03-14T17:55:19.067Z,96473.97
2023-03-14T17:57:23.452Z,96475.19
2023-03-14T17:59:27.695Z,96491.50
2023-03-14T18:01:31.511Z,96492.97
2023-03-14T18:03:34.498Z,96497.69
2023-03-14T18:05:40.697Z,96497.53
2023-03-14T18:07:43.726Z,96510.38
2023-03-14T18:09:46.469Z,96517.34
2023-03-14T18:11:51.615Z,96517.13
2023-03-14T18:14:04.778Z,96522.63
2023-03-14T18:16:14.520Z,96517.13
2023-03-14T18:18:17.814Z,96518.97
2023-03-14T18:20:20.990Z,96521.22
2023-03-14T18:22:24.043Z,96527.34
2023-03-14T18:24:28.843Z,96530.97
2023-03-14T18:26:31.893Z,96532.63
2023-03-14T18:28:34.744Z,96534.03
2023-03-14T18:30:37.533Z,96533.03
2023-03-14T18:32:41.811Z,96536.91
2023-03-14T18:34:44.688Z,96541.56
2023-03-14T18:36:47.958Z,96550.38
2023-03-14T18:38:56.457Z,96546.09
2023-03-14T18:41:05.240Z,96554.03
2023-03-14T18:43:08.040Z,96557.72
2023-03-14T18:45:12.072Z,96558.31
2023-03-14T18:47:14.990Z,96566.91
2023-03-14T18:49:20.787Z,96576.47
2023-03-14T18:51:26.633Z,96570.16
2023-03-14T18:53:32.313Z,96577.06
2023-03-14T18:55:35.360Z,96585.03
2023-03-14T18:57:38.179Z,96574.25
2023-03-14T18:59:41.380Z,96578.53
2023-03-14T19:01:44.493Z,96573.00
2023-03-14T19:03:48.367Z,96575.06
2023-03-14T19:05:52.557Z,96573.66
2023-03-14T19:07:58.052Z,96579.75
2023-03-14T19:10:00.993Z,96578.94
2023-03-14T19:12:05.454Z,96584.44
2023-03-14T19:14:09.194Z,96584.84
2023-03-14T19:16:13.821Z,96584.84
2023-03-14T19:18:16.660Z,96585.47
2023-03-14T19:20:19.952Z,96587.69
2023-03-14T19:22:24.350Z,96586.69
2023-03-14T19:24:27.550Z,96583.00
2023-03-14T19:26:32.404Z,96588.09
2023-03-14T19:28:35.557Z,96580.97
2023-03-14T19:30:38.445Z,96579.13
2023-03-14T19:32:41.927Z,96588.31
2023-03-14T19:34:44.721Z,96588.31
2023-03-14T19:36:47.502Z,96593.41
2023-03-14T19:38:53.067Z,96591.56
2023-03-14T19:40:59.087Z,96595.22
2023-03-14T19:43:01.867Z,96599.50
2023-03-14T19:45:05.701Z,96600.53
2023-03-14T19:47:08.488Z,96587.50
2023-03-14T19:49:11.444Z,96582.41
2023-03-14T19:51:14.738Z,96594.63
2023-03-14T19:53:19.153Z,96604.63
2023-03-14T19:55:23.696Z,96600.94
2023-03-14T19:57:26.498Z,96603.81
2023-03-14T19:59:29.252Z,96607.25
2023-03-14T20:01:32.736Z,96601.38
2023-03-14T20:03:36.298Z,96603.38
2023-03-14T20:05:41.754Z,96603.59
2023-03-14T20:07:46.552Z,96606.66
2023-03-14T20:09:49.275Z,96615.63
2023-03-14T20:11:53.463Z,96611.53
2023-03-14T20:13:56.273Z,96620.06
2023-03-14T20:15:59.130Z,96619.47
2023-03-14T20:18:02.016Z,96611.09
2023-03-14T20:20:06.543Z,96614.38
2023-03-14T20:22:09.302Z,96629.47
2023-03-14T20:24:12.095Z,96619.06
2023-03-14T20:26:14.871Z,96633.13
2023-03-14T20:28:18.963Z,96635.38
2023-03-14T20:30:22.971Z,96633.94
2023-03-14T20:32:25.923Z,96631.31
2023-03-14T20:34:32.356Z,96637.19
2023-03-14T20:36:35.754Z,96632.94
2023-03-14T20:38:38.662Z,96643.31
2023-03-14T20:40:41.472Z,96641.47
2023-03-14T20:42:44.021Z,96636.78
2023-03-14T20:44:48.221Z,96636.56
2023-03-14T20:46:51.095Z,96638.41
2023-03-14T20:48:53.949Z,96646.97
2023-03-14T20:50:57.234Z,96646.97
2023-03-14T20:53:00.050Z,96648.81
2023-03-14T20:55:02.932Z,96647.78
2023-03-14T20:57:06.006Z,96653.88
2023-03-14T20:59:09.054Z,96654.31
2023-03-14T21:01:13.799Z,96664.91
2023-03-14T21:03:17.984Z,96664.50
2023-03-14T21:05:21.304Z,96650.22
2023-03-14T21:07:24.160Z,96657.56
2023-03-14T21:09:27.432Z,96655.94
2023-03-14T21:11:30.291Z,96658.41
2023-03-14T21:13:33.755Z,96649.63
2023-03-14T21:15:37.649Z,96656.78
2023-03-14T21:17:42.501Z,96665.75
2023-03-14T21:19:45.629Z,96669.81
2023-03-14T21:21:48.787Z,96657.38
2023-03-14T21:23:54.234Z,96656.34
2023-03-14T21:25:57.929Z,96649.00
2023-03-14T21:28:02.760Z,96642.69
2023-03-14T21:30:06.703Z,96641.66
2023-03-14T21:32:10.715Z,96651.44
2023-03-14T21:34:15.317Z,96659.59
2023-03-14T21:36:21.341Z,96660.22
2023-03-14T21:38:24.247Z,96660.81
2023-03-14T21:40:27.238Z,96643.94
2023-03-14T21:42:30.105Z,96653.28
2023-03-14T21:44:37.142Z,96650.44
2023-03-14T21:46:40.266Z,96641.66
2023-03-14T21:48:45.010Z,96634.34
2023-03-14T21:50:49.647Z,96635.16
2023-03-14T21:52:56.494Z,96633.31
2023-03-14T21:54:59.537Z,96640.47
2023-03-14T21:57:03.423Z,96640.88
2023-03-14T21:59:06.471Z,96651.47
2023-03-14T22:01:10.099Z,96647.19
2023-03-14T22:03:14.096Z,96633.75
2023-03-14T22:05:18.430Z,96647.38
2023-03-14T22:07:22.596Z,96651.06
2023-03-14T22:09:25.518Z,96652.06
2023-03-14T22:11:28.269Z,96653.50
2023-03-14T22:13:31.361Z,96650.25
2023-03-14T22:15:34.225Z,96653.69
2023-03-14T22:17:37.358Z,96654.50
2023-03-14T22:19:40.495Z,96653.91
2023-03-14T22:21:44.061Z,96665.91
2023-03-14T22:23:49.953Z,96665.75
2023-03-14T22:25:52.935Z,96668.19
2023-03-14T22:27:57.123Z,96671.44
2023-03-14T22:29:59.968Z,96650.66
2023-03-14T22:32:02.791Z,96658.59
2023-03-14T22:34:05.686Z,96653.09
2023-03-14T22:36:10.320Z,96648.19
2023-03-14T22:38:13.039Z,96664.94
2023-03-14T22:40:17.390Z,96678.34
2023-03-14T22:42:20.183Z,96680.41
2023-03-14T22:44:23.799Z,96695.69
